sensor_id;sensor_type;location;lat;lon;timestamp;pressure;altitude;pressure_sealevel;temperature;humidity
60258;BME280;46115;44.484;11.314;2023-07-28T00:03:33;100006.06;;;21.78;60.34
60258;BME280;46115;44.484;11.314;2023-07-28T00:07:35;100019.72;;;21.85;59.03
60258;BME280;46115;44.484;11.314;2023-07-28T00:11:38;100018.19;;;21.83;58.83
60258;BME280;46115;44.484;11.314;2023-07-28T00:15:41;100010.53;;;21.26;59.97
60258;BME280;46115;44.484;11.314;2023-07-28T00:19:44;100018.09;;;21.48;59.44
60258;BME280;46115;44.484;11.314;2023-07-28T00:23:46;100012.44;;;21.34;59.06
60258;BME280;46115;44.484;11.314;2023-07-28T00:27:49;100000.59;;;21.44;58.55
60258;BME280;46115;44.484;11.314;2023-07-28T00:31:53;99990.38;;;21.48;57.82
60258;BME280;46115;44.484;11.314;2023-07-28T00:35:55;99983.25;;;21.21;58.25
60258;BME280;46115;44.484;11.314;2023-07-28T00:39:58;99979.94;;;21.09;58.37
60258;BME280;46115;44.484;11.314;2023-07-28T00:44:00;99988.31;;;21.06;58.65
60258;BME280;46115;44.484;11.314;2023-07-28T00:48:08;99991.44;;;20.66;58.77
60258;BME280;46115;44.484;11.314;2023-07-28T00:52:13;99981.22;;;20.52;59.20
60258;BME280;46115;44.484;11.314;2023-07-28T00:56:16;99991.13;;;20.51;58.82
60258;BME280;46115;44.484;11.314;2023-07-28T01:00:18;99986.97;;;20.57;57.82
60258;BME280;46115;44.484;11.314;2023-07-28T01:04:22;99984.84;;;20.78;56.69
60258;BME280;46115;44.484;11.314;2023-07-28T01:08:30;99976.28;;;20.93;56.85
60258;BME280;46115;44.484;11.314;2023-07-28T01:12:35;99964.16;;;20.89;56.51
60258;BME280;46115;44.484;11.314;2023-07-28T01:16:37;99964.66;;;20.57;57.44
60258;BME280;46115;44.484;11.314;2023-07-28T01:20:42;99966.00;;;20.43;57.21
60258;BME280;46115;44.484;11.314;2023-07-28T01:24:55;99965.31;;;20.86;56.11
60258;BME280;46115;44.484;11.314;2023-07-28T01:29:04;99969.78;;;20.68;56.24
60258;BME280;46115;44.484;11.314;2023-07-28T01:33:08;99959.81;;;20.78;55.59
60258;BME280;46115;44.484;11.314;2023-07-28T01:37:10;99957.75;;;20.72;55.70
60258;BME280;46115;44.484;11.314;2023-07-28T01:41:13;99962.28;;;20.53;56.34
60258;BME280;46115;44.484;11.314;2023-07-28T01:45:17;99962.19;;;20.36;56.51
60258;BME280;46115;44.484;11.314;2023-07-28T01:49:19;99954.41;;;20.42;56.64
60258;BME280;46115;44.484;11.314;2023-07-28T01:53:22;99955.38;;;20.51;55.59
60258;BME280;46115;44.484;11.314;2023-07-28T01:57:24;99972.56;;;20.76;55.31
60258;BME280;46115;44.484;11.314;2023-07-28T02:01:30;99981.00;;;20.63;55.02
60258;BME280;46115;44.484;11.314;2023-07-28T02:05:32;99978.22;;;20.55;55.03
60258;BME280;46115;44.484;11.314;2023-07-28T02:09:35;99974.25;;;20.59;55.17
60258;BME280;46115;44.484;11.314;2023-07-28T02:13:37;99970.56;;;20.60;55.03
60258;BME280;46115;44.484;11.314;2023-07-28T02:21:43;99980.22;;;20.71;55.63
60258;BME280;46115;44.484;11.314;2023-07-28T02:25:46;99979.22;;;20.54;55.30
60258;BME280;46115;44.484;11.314;2023-07-28T02:29:48;99962.59;;;20.68;54.53
60258;BME280;46115;44.484;11.314;2023-07-28T02:33:52;99963.88;;;20.64;54.20
60258;BME280;46115;44.484;11.314;2023-07-28T02:37:54;99962.16;;;20.45;54.49
60258;BME280;46115;44.484;11.314;2023-07-28T02:41:57;99965.72;;;20.36;54.85
60258;BME280;46115;44.484;11.314;2023-07-28T02:46:00;99969.94;;;20.11;56.25
60258;BME280;46115;44.484;11.314;2023-07-28T02:50:05;99967.47;;;20.28;55.35
60258;BME280;46115;44.484;11.314;2023-07-28T02:54:08;99973.44;;;20.21;55.62
60258;BME280;46115;44.484;11.314;2023-07-28T02:58:11;99955.13;;;20.07;55.74
60258;BME280;46115;44.484;11.314;2023-07-28T03:02:13;99980.47;;;19.95;56.90
60258;BME280;46115;44.484;11.314;2023-07-28T03:06:18;99981.44;;;19.94;56.44
60258;BME280;46115;44.484;11.314;2023-07-28T03:10:20;99989.31;;;20.05;55.82
60258;BME280;46115;44.484;11.314;2023-07-28T03:14:23;99988.50;;;19.95;55.77
60258;BME280;46115;44.484;11.314;2023-07-28T03:18:25;99988.50;;;19.95;55.66
60258;BME280;46115;44.484;11.314;2023-07-28T03:22:29;99976.03;;;20.04;55.55
60258;BME280;46115;44.484;11.314;2023-07-28T03:26:32;99963.28;;;19.88;55.47
60258;BME280;46115;44.484;11.314;2023-07-28T03:30:34;99954.56;;;20.04;55.01
60258;BME280;46115;44.484;11.314;2023-07-28T03:34:37;99970.97;;;20.01;55.68
60258;BME280;46115;44.484;11.314;2023-07-28T03:38:43;99976.44;;;19.81;55.95
60258;BME280;46115;44.484;11.314;2023-07-28T03:42:46;99977.41;;;19.71;56.94
60258;BME280;46115;44.484;11.314;2023-07-28T03:46:49;99993.81;;;19.48;57.23
60258;BME280;46115;44.484;11.314;2023-07-28T03:50:51;99983.66;;;19.61;57.40
60258;BME280;46115;44.484;11.314;2023-07-28T03:54:55;99992.28;;;19.55;57.11
60258;BME280;46115;44.484;11.314;2023-07-28T03:58:58;99991.22;;;19.85;56.62
60258;BME280;46115;44.484;11.314;2023-07-28T04:03:00;99977.41;;;19.71;56.85
60258;BME280;46115;44.484;11.314;2023-07-28T04:07:04;99980.97;;;19.42;56.56
60258;BME280;46115;44.484;11.314;2023-07-28T04:11:08;99990.84;;;19.71;56.43
60258;BME280;46115;44.484;11.314;2023-07-28T04:15:18;99989.56;;;19.65;56.91
60258;BME280;46115;44.484;11.314;2023-07-28T04:19:20;100002.81;;;19.76;56.21
60258;BME280;46115;44.484;11.314;2023-07-28T04:23:22;99980.94;;;19.81;55.95
60258;BME280;46115;44.484;11.314;2023-07-28T04:27:27;99994.06;;;19.84;56.30
60258;BME280;46115;44.484;11.314;2023-07-28T04:31:33;100000.19;;;20.41;54.97
60258;BME280;46115;44.484;11.314;2023-07-28T04:35:41;99995.53;;;20.43;54.97
60258;BME280;46115;44.484;11.314;2023-07-28T04:39:54;100001.13;;;20.22;56.09
60258;BME280;46115;44.484;11.314;2023-07-28T04:43:58;100013.75;;;20.49;55.53
60258;BME280;46115;44.484;11.314;2023-07-28T04:48:05;100005.53;;;20.13;56.64
60258;BME280;46115;44.484;11.314;2023-07-28T04:52:08;99974.25;;;19.94;56.12
60258;BME280;46115;44.484;11.314;2023-07-28T04:56:33;99971.91;;;20.09;56.81
60258;BME280;46115;44.484;11.314;2023-07-28T05:00:37;100010.63;;;20.44;56.50
60258;BME280;46115;44.484;11.314;2023-07-28T05:04:40;100023.69;;;20.29;56.63
60258;BME280;46115;44.484;11.314;2023-07-28T05:08:42;100016.31;;;20.41;56.76
60258;BME280;46115;44.484;11.314;2023-07-28T05:12:45;100005.63;;;20.59;56.26
60258;BME280;46115;44.484;11.314;2023-07-28T05:16:49;100016.56;;;20.47;56.79
60258;BME280;46115;44.484;11.314;2023-07-28T05:21:29;100031.22;;;20.98;56.16
60258;BME280;46115;44.484;11.314;2023-07-28T05:25:32;100034.25;;;20.68;56.95
60258;BME280;46115;44.484;11.314;2023-07-28T05:29:35;100019.56;;;20.35;57.90
60258;BME280;46115;44.484;11.314;2023-07-28T05:33:41;100012.44;;;20.53;57.30
60258;BME280;46115;44.484;11.314;2023-07-28T05:37:44;100043.44;;;21.10;56.40
60258;BME280;46115;44.484;11.314;2023-07-28T05:41:47;100051.84;;;21.43;55.71
60258;BME280;46115;44.484;11.314;2023-07-28T05:45:49;100053.88;;;22.36;53.79
60258;BME280;46115;44.484;11.314;2023-07-28T05:49:53;100046.00;;;22.51;53.71
60258;BME280;46115;44.484;11.314;2023-07-28T05:53:57;100040.25;;;22.38;53.59
60258;BME280;46115;44.484;11.314;2023-07-28T05:57:59;100055.88;;;23.35;51.79
60258;BME280;46115;44.484;11.314;2023-07-28T06:02:02;100056.06;;;23.42;52.59
60258;BME280;46115;44.484;11.314;2023-07-28T06:06:13;100021.84;;;23.75;52.83
60258;BME280;46115;44.484;11.314;2023-07-28T06:10:15;100057.91;;;23.25;53.14
60258;BME280;46115;44.484;11.314;2023-07-28T06:14:18;100058.94;;;23.56;53.36
60258;BME280;46115;44.484;11.314;2023-07-28T06:18:21;100064.69;;;23.78;52.90
60258;BME280;46115;44.484;11.314;2023-07-28T06:22:32;100077.50;;;24.00;52.10
60258;BME280;46115;44.484;11.314;2023-07-28T06:26:34;100078.66;;;24.14;51.19
60258;BME280;46115;44.484;11.314;2023-07-28T06:30:37;100058.78;;;23.74;51.29
60258;BME280;46115;44.484;11.314;2023-07-28T06:34:40;100085.28;;;23.62;52.55
60258;BME280;46115;44.484;11.314;2023-07-28T06:38:44;100090.13;;;24.08;53.00
60258;BME280;46115;44.484;11.314;2023-07-28T06:42:49;100085.63;;;24.64;51.08
60258;BME280;46115;44.484;11.314;2023-07-28T06:46:52;100090.97;;;24.16;51.73
60258;BME280;46115;44.484;11.314;2023-07-28T06:50:55;100097.53;;;24.38;52.06
60258;BME280;46115;44.484;11.314;2023-07-28T06:54:59;100082.59;;;25.06;49.88
60258;BME280;46115;44.484;11.314;2023-07-28T06:59:02;100089.59;;;24.20;51.62
60258;BME280;46115;44.484;11.314;2023-07-28T07:03:05;100089.59;;;24.20;52.21
60258;BME280;46115;44.484;11.314;2023-07-28T07:07:07;100094.59;;;24.95;51.85
60258;BME280;46115;44.484;11.314;2023-07-28T07:11:11;100106.38;;;24.71;52.86
60258;BME280;46115;44.484;11.314;2023-07-28T07:15:14;100110.94;;;24.71;52.65
60258;BME280;46115;44.484;11.314;2023-07-28T07:19:17;100110.53;;;24.43;52.90
60258;BME280;46115;44.484;11.314;2023-07-28T07:23:19;100101.41;;;24.44;52.96
60258;BME280;46115;44.484;11.314;2023-07-28T07:27:25;100109.25;;;24.62;53.29
60258;BME280;46115;44.484;11.314;2023-07-28T07:31:27;100122.78;;;24.62;53.54
60258;BME280;46115;44.484;11.314;2023-07-28T07:35:30;100118.44;;;24.92;52.32
60258;BME280;46115;44.484;11.314;2023-07-28T07:39:33;100112.09;;;24.76;53.41
60258;BME280;46115;44.484;11.314;2023-07-28T07:43:38;100103.47;;;24.81;52.47
60258;BME280;46115;44.484;11.314;2023-07-28T07:47:41;100094.03;;;25.39;53.23
60258;BME280;46115;44.484;11.314;2023-07-28T07:51:44;100105.22;;;25.36;52.02
60258;BME280;46115;44.484;11.314;2023-07-28T07:55:48;100101.66;;;25.12;51.77
60258;BME280;46115;44.484;11.314;2023-07-28T07:59:52;100109.34;;;25.24;52.55
60258;BME280;46115;44.484;11.314;2023-07-28T08:03:55;100120.56;;;25.12;53.72
60258;BME280;46115;44.484;11.314;2023-07-28T08:07:58;100125.56;;;24.84;55.20
60258;BME280;46115;44.484;11.314;2023-07-28T08:12:00;100117.06;;;24.96;54.86
60258;BME280;46115;44.484;11.314;2023-07-28T08:16:05;100115.91;;;24.90;55.09
60258;BME280;46115;44.484;11.314;2023-07-28T08:20:08;100125.56;;;25.01;54.10
60258;BME280;46115;44.484;11.314;2023-07-28T08:24:11;100116.06;;;25.05;54.25
60258;BME280;46115;44.484;11.314;2023-07-28T08:28:13;100116.66;;;24.76;54.63
60258;BME280;46115;44.484;11.314;2023-07-28T08:32:17;100127.22;;;25.33;52.55
60258;BME280;46115;44.484;11.314;2023-07-28T08:36:20;100143.59;;;25.62;54.05
60258;BME280;46115;44.484;11.314;2023-07-28T08:40:22;100109.41;;;24.76;54.00
60258;BME280;46115;44.484;11.314;2023-07-28T08:44:30;100153.28;;;25.34;53.76
60258;BME280;46115;44.484;11.314;2023-07-28T08:48:35;100149.06;;;25.54;52.88
60258;BME280;46115;44.484;11.314;2023-07-28T08:52:37;100140.38;;;25.90;52.52
60258;BME280;46115;44.484;11.314;2023-07-28T08:56:40;100153.66;;;25.99;51.54
60258;BME280;46115;44.484;11.314;2023-07-28T09:00:43;100154.75;;;26.13;51.37
60258;BME280;46115;44.484;11.314;2023-07-28T09:04:48;100162.41;;;26.47;51.38
60258;BME280;46115;44.484;11.314;2023-07-28T09:08:51;100167.47;;;26.80;47.25
60258;BME280;46115;44.484;11.314;2023-07-28T09:12:54;100150.06;;;27.18;48.25
60258;BME280;46115;44.484;11.314;2023-07-28T09:17:06;100156.69;;;27.88;45.85
60258;BME280;46115;44.484;11.314;2023-07-28T09:21:16;100164.63;;;28.67;45.14
60258;BME280;46115;44.484;11.314;2023-07-28T09:25:18;100161.91;;;28.95;43.49
60258;BME280;46115;44.484;11.314;2023-07-28T09:29:22;100153.97;;;29.47;41.16
60258;BME280;46115;44.484;11.314;2023-07-28T09:33:32;100149.34;;;28.94;42.27
60258;BME280;46115;44.484;11.314;2023-07-28T09:37:39;100145.78;;;29.47;40.92
60258;BME280;46115;44.484;11.314;2023-07-28T09:41:44;100151.41;;;29.39;38.35
60258;BME280;46115;44.484;11.314;2023-07-28T09:45:48;100152.34;;;29.12;39.77
60258;BME280;46115;44.484;11.314;2023-07-28T09:49:53;100134.13;;;29.73;40.28
60258;BME280;46115;44.484;11.314;2023-07-28T09:54:04;100141.44;;;29.66;39.48
60258;BME280;46115;44.484;11.314;2023-07-28T09:58:09;100132.22;;;29.61;39.04
60258;BME280;46115;44.484;11.314;2023-07-28T10:02:13;100124.84;;;29.48;40.50
60258;BME280;46115;44.484;11.314;2023-07-28T10:06:16;100135.16;;;29.11;39.01
60258;BME280;46115;44.484;11.314;2023-07-28T10:10:21;100131.00;;;28.74;39.86
60258;BME280;46115;44.484;11.314;2023-07-28T10:14:27;100121.63;;;29.18;41.12
60258;BME280;46115;44.484;11.314;2023-07-28T10:18:31;100127.81;;;29.05;41.56
60258;BME280;46115;44.484;11.314;2023-07-28T10:22:43;100119.88;;;28.69;40.45
60258;BME280;46115;44.484;11.314;2023-07-28T10:26:47;100116.75;;;28.38;41.41
60258;BME280;46115;44.484;11.314;2023-07-28T10:30:52;100107.03;;;28.50;42.40
60258;BME280;46115;44.484;11.314;2023-07-28T10:34:59;100119.41;;;28.59;43.36
60258;BME280;46115;44.484;11.314;2023-07-28T10:39:12;100125.16;;;28.77;41.22
60258;BME280;46115;44.484;11.314;2023-07-28T10:43:16;100123.38;;;28.91;41.98
60258;BME280;46115;44.484;11.314;2023-07-28T10:47:20;100128.00;;;28.97;41.29
60258;BME280;46115;44.484;11.314;2023-07-28T10:51:25;100123.03;;;28.73;41.79
60258;BME280;46115;44.484;11.314;2023-07-28T10:55:35;100109.88;;;28.42;42.21
60258;BME280;46115;44.484;11.314;2023-07-28T10:59:39;100114.38;;;28.91;42.74
60258;BME280;46115;44.484;11.314;2023-07-28T11:03:41;100111.25;;;28.03;41.73
60258;BME280;46115;44.484;11.314;2023-07-28T11:07:45;100102.72;;;28.34;42.18
60258;BME280;46115;44.484;11.314;2023-07-28T11:11:49;100105.19;;;28.57;42.91
60258;BME280;46115;44.484;11.314;2023-07-28T11:15:53;100105.19;;;28.57;43.96
60258;BME280;46115;44.484;11.314;2023-07-28T11:19:56;100097.97;;;28.43;43.94
60258;BME280;46115;44.484;11.314;2023-07-28T11:23:58;100097.53;;;28.39;42.87
60258;BME280;46115;44.484;11.314;2023-07-28T11:28:02;100086.25;;;28.42;42.43
60258;BME280;46115;44.484;11.314;2023-07-28T11:32:08;100087.91;;;28.37;43.28
60258;BME280;46115;44.484;11.314;2023-07-28T11:36:10;100081.16;;;28.61;42.51
60258;BME280;46115;44.484;11.314;2023-07-28T11:40:14;100069.59;;;28.86;42.29
60258;BME280;46115;44.484;11.314;2023-07-28T11:44:19;100066.53;;;28.68;40.92
60258;BME280;46115;44.484;11.314;2023-07-28T11:48:23;100061.09;;;28.68;41.42
60258;BME280;46115;44.484;11.314;2023-07-28T11:52:30;100073.41;;;28.64;41.33
60258;BME280;46115;44.484;11.314;2023-07-28T11:56:32;100062.75;;;28.63;42.14
60258;BME280;46115;44.484;11.314;2023-07-28T12:00:37;100071.31;;;28.60;41.56
60258;BME280;46115;44.484;11.314;2023-07-28T12:04:42;100058.97;;;28.64;42.72
60258;BME280;46115;44.484;11.314;2023-07-28T12:08:48;100055.34;;;28.84;41.49
60258;BME280;46115;44.484;11.314;2023-07-28T12:12:50;100055.88;;;28.73;40.25
60258;BME280;46115;44.484;11.314;2023-07-28T12:16:53;100052.94;;;28.68;40.81
60258;BME280;46115;44.484;11.314;2023-07-28T12:20:57;100053.22;;;28.80;40.57
60258;BME280;46115;44.484;11.314;2023-07-28T12:25:01;100048.03;;;28.85;40.17
60258;BME280;46115;44.484;11.314;2023-07-28T12:29:03;100054.22;;;28.79;39.73
60258;BME280;46115;44.484;11.314;2023-07-28T12:33:06;100044.56;;;28.63;37.54
60258;BME280;46115;44.484;11.314;2023-07-28T12:37:10;100041.53;;;28.86;37.75
60258;BME280;46115;44.484;11.314;2023-07-28T12:41:14;100043.00;;;28.88;37.27
60258;BME280;46115;44.484;11.314;2023-07-28T12:45:16;100027.41;;;28.63;38.78
60258;BME280;46115;44.484;11.314;2023-07-28T12:49:19;100038.13;;;28.36;36.54
60258;BME280;46115;44.484;11.314;2023-07-28T12:53:23;100023.81;;;28.55;38.58
60258;BME280;46115;44.484;11.314;2023-07-28T12:57:25;100022.38;;;28.66;38.40
60258;BME280;46115;44.484;11.314;2023-07-28T13:01:28;100013.72;;;28.91;38.89
60258;BME280;46115;44.484;11.314;2023-07-28T13:05:31;100015.19;;;29.00;38.82
60258;BME280;46115;44.484;11.314;2023-07-28T13:09:35;100017.72;;;29.01;37.75
60258;BME280;46115;44.484;11.314;2023-07-28T13:13:38;100015.03;;;29.14;38.03
60258;BME280;46115;44.484;11.314;2023-07-28T13:17:41;100000.13;;;29.04;37.67
60258;BME280;46115;44.484;11.314;2023-07-28T13:21:43;100004.16;;;29.14;36.14
60258;BME280;46115;44.484;11.314;2023-07-28T13:25:47;100004.31;;;28.93;36.92
60258;BME280;46115;44.484;11.314;2023-07-28T13:29:50;100008.91;;;28.86;37.01
60258;BME280;46115;44.484;11.314;2023-07-28T13:33:52;99998.47;;;29.03;37.05
60258;BME280;46115;44.484;11.314;2023-07-28T13:37:55;99982.13;;;29.03;37.96
60258;BME280;46115;44.484;11.314;2023-07-28T13:41:59;99971.44;;;28.95;38.04
60258;BME280;46115;44.484;11.314;2023-07-28T13:46:01;99965.00;;;29.22;37.48
60258;BME280;46115;44.484;11.314;2023-07-28T13:50:06;99962.50;;;29.21;36.56
60258;BME280;46115;44.484;11.314;2023-07-28T13:54:09;99965.81;;;29.09;37.38
60258;BME280;46115;44.484;11.314;2023-07-28T13:58:13;99975.47;;;29.18;37.47
60258;BME280;46115;44.484;11.314;2023-07-28T14:02:17;99967.53;;;29.30;37.05
60258;BME280;46115;44.484;11.314;2023-07-28T14:06:19;99957.69;;;29.23;37.19
60258;BME280;46115;44.484;11.314;2023-07-28T14:10:22;99947.00;;;29.41;37.73
60258;BME280;46115;44.484;11.314;2023-07-28T14:14:26;99937.16;;;29.27;37.66
60258;BME280;46115;44.484;11.314;2023-07-28T14:18:29;99942.81;;;29.25;37.89
60258;BME280;46115;44.484;11.314;2023-07-28T14:22:31;99935.47;;;28.99;36.61
60258;BME280;46115;44.484;11.314;2023-07-28T14:26:34;99924.59;;;29.19;36.29
60258;BME280;46115;44.484;11.314;2023-07-28T14:30:38;99920.41;;;29.23;36.83
60258;BME280;46115;44.484;11.314;2023-07-28T14:34:40;99926.66;;;29.43;36.69
60258;BME280;46115;44.484;11.314;2023-07-28T14:38:43;99913.91;;;29.11;36.44
60258;BME280;46115;44.484;11.314;2023-07-28T14:42:45;99920.22;;;29.44;37.62
60258;BME280;46115;44.484;11.314;2023-07-28T14:46:49;99921.25;;;29.57;38.40
60258;BME280;46115;44.484;11.314;2023-07-28T14:50:52;99918.31;;;29.65;36.79
60258;BME280;46115;44.484;11.314;2023-07-28T14:54:54;99921.88;;;29.65;37.02
60258;BME280;46115;44.484;11.314;2023-07-28T14:58:57;99925.25;;;29.54;36.75
60258;BME280;46115;44.484;11.314;2023-07-28T15:03:03;99900.09;;;29.32;36.48
60258;BME280;46115;44.484;11.314;2023-07-28T15:07:06;99926.72;;;29.50;36.74
60258;BME280;46115;44.484;11.314;2023-07-28T15:11:09;99930.88;;;29.26;36.45
60258;BME280;46115;44.484;11.314;2023-07-28T15:15:12;99921.44;;;29.35;35.85
60258;BME280;46115;44.484;11.314;2023-07-28T15:19:16;99921.06;;;29.58;36.34
60258;BME280;46115;44.484;11.314;2023-07-28T15:23:18;99918.09;;;29.40;36.25
60258;BME280;46115;44.484;11.314;2023-07-28T15:27:21;99914.75;;;29.38;37.62
60258;BME280;46115;44.484;11.314;2023-07-28T15:31:23;99906.19;;;29.54;37.10
60258;BME280;46115;44.484;11.314;2023-07-28T15:35:27;99908.91;;;29.47;36.36
60258;BME280;46115;44.484;11.314;2023-07-28T15:39:30;99905.53;;;29.39;37.23
60258;BME280;46115;44.484;11.314;2023-07-28T15:43:33;99901.78;;;29.53;36.60
60258;BME280;46115;44.484;11.314;2023-07-28T15:47:35;99907.00;;;29.35;36.81
60258;BME280;46115;44.484;11.314;2023-07-28T15:51:39;99899.06;;;29.20;36.51
60258;BME280;46115;44.484;11.314;2023-07-28T15:55:41;99905.09;;;29.42;37.00
60258;BME280;46115;44.484;11.314;2023-07-28T15:59:45;99894.03;;;29.24;37.05
60258;BME280;46115;44.484;11.314;2023-07-28T16:03:47;99897.38;;;29.59;36.82
60258;BME280;46115;44.484;11.314;2023-07-28T16:07:51;99906.16;;;29.47;36.42
60258;BME280;46115;44.484;11.314;2023-07-28T16:11:54;99898.44;;;29.51;36.72
60258;BME280;46115;44.484;11.314;2023-07-28T16:15:56;99895.50;;;29.53;37.33
60258;BME280;46115;44.484;11.314;2023-07-28T16:19:58;99888.53;;;29.70;36.77
60258;BME280;46115;44.484;11.314;2023-07-28T16:24:03;99880.31;;;29.83;37.22
60258;BME280;46115;44.484;11.314;2023-07-28T16:28:05;99887.25;;;29.86;36.43
60258;BME280;46115;44.484;11.314;2023-07-28T16:32:08;99885.63;;;29.65;36.93
60258;BME280;46115;44.484;11.314;2023-07-28T16:36:12;99878.13;;;29.54;37.58
60258;BME280;46115;44.484;11.314;2023-07-28T16:40:16;99872.66;;;29.40;38.36
60258;BME280;46115;44.484;11.314;2023-07-28T16:44:18;99875.59;;;29.32;38.29
60258;BME280;46115;44.484;11.314;2023-07-28T16:48:21;99871.00;;;29.46;38.71
60258;BME280;46115;44.484;11.314;2023-07-28T16:52:23;99860.13;;;29.53;39.13
60258;BME280;46115;44.484;11.314;2023-07-28T16:56:29;99864.50;;;29.54;38.85
60258;BME280;46115;44.484;11.314;2023-07-28T17:00:32;99869.94;;;29.34;39.60
60258;BME280;46115;44.484;11.314;2023-07-28T17:04:34;99882.09;;;29.51;39.05
60258;BME280;46115;44.484;11.314;2023-07-28T17:08:37;99853.81;;;29.39;40.42
60258;BME280;46115;44.484;11.314;2023-07-28T17:12:40;99885.44;;;29.13;42.08
60258;BME280;46115;44.484;11.314;2023-07-28T17:16:43;99893.00;;;29.25;42.77
60258;BME280;46115;44.484;11.314;2023-07-28T17:20:45;99889.84;;;29.01;45.77
60258;BME280;46115;44.484;11.314;2023-07-28T17:24:48;99893.84;;;29.18;45.42
60258;BME280;46115;44.484;11.314;2023-07-28T17:28:53;99900.72;;;29.47;44.62
60258;BME280;46115;44.484;11.314;2023-07-28T17:32:56;99873.72;;;29.33;44.57
60258;BME280;46115;44.484;11.314;2023-07-28T17:36:59;99888.16;;;29.27;45.66
60258;BME280;46115;44.484;11.314;2023-07-28T17:41:01;99887.94;;;29.02;47.58
60258;BME280;46115;44.484;11.314;2023-07-28T17:45:07;99886.22;;;28.68;47.53
60258;BME280;46115;44.484;11.314;2023-07-28T17:49:10;99882.03;;;28.78;47.68
60258;BME280;46115;44.484;11.314;2023-07-28T17:53:12;99884.41;;;29.01;47.67
60258;BME280;46115;44.484;11.314;2023-07-28T17:57:15;99880.63;;;28.89;47.94
60258;BME280;46115;44.484;11.314;2023-07-28T18:01:19;99868.63;;;28.64;48.66
60258;BME280;46115;44.484;11.314;2023-07-28T18:05:22;99880.34;;;28.71;48.57
60258;BME280;46115;44.484;11.314;2023-07-28T18:09:24;99888.13;;;28.19;49.98
60258;BME280;46115;44.484;11.314;2023-07-28T18:13:27;99887.72;;;28.16;49.72
60258;BME280;46115;44.484;11.314;2023-07-28T18:17:31;99884.50;;;28.06;50.16
60258;BME280;46115;44.484;11.314;2023-07-28T18:21:33;99889.31;;;28.04;49.57
60258;BME280;46115;44.484;11.314;2023-07-28T18:25:36;99892.00;;;27.97;49.95
60258;BME280;46115;44.484;11.314;2023-07-28T18:29:38;99888.28;;;28.05;49.59
60258;BME280;46115;44.484;11.314;2023-07-28T18:33:42;99893.09;;;28.09;49.56
60258;BME280;46115;44.484;11.314;2023-07-28T18:37:45;99879.00;;;27.86;50.10
60258;BME280;46115;44.484;11.314;2023-07-28T18:41:48;99887.91;;;27.73;50.94
60258;BME280;46115;44.484;11.314;2023-07-28T18:45:50;99860.31;;;27.70;50.43
60258;BME280;46115;44.484;11.314;2023-07-28T18:49:54;99876.81;;;27.68;50.78
60258;BME280;46115;44.484;11.314;2023-07-28T18:53:58;99904.94;;;27.60;51.30
60258;BME280;46115;44.484;11.314;2023-07-28T18:58:00;99902.22;;;27.60;51.42
60258;BME280;46115;44.484;11.314;2023-07-28T19:02:03;99900.34;;;27.61;51.49
60258;BME280;46115;44.484;11.314;2023-07-28T19:06:07;99907.63;;;27.32;52.85
60258;BME280;46115;44.484;11.314;2023-07-28T19:10:10;99918.28;;;27.34;52.53
60258;BME280;46115;44.484;11.314;2023-07-28T19:14:13;99925.91;;;27.73;50.36
60258;BME280;46115;44.484;11.314;2023-07-28T19:18:15;99923.25;;;27.80;50.37
60258;BME280;46115;44.484;11.314;2023-07-28T19:22:20;99929.97;;;27.84;50.52
60258;BME280;46115;44.484;11.314;2023-07-28T19:26:22;99913.78;;;27.41;52.21
60258;BME280;46115;44.484;11.314;2023-07-28T19:30:25;99933.63;;;27.42;51.96
60258;BME280;46115;44.484;11.314;2023-07-28T22:06:08;100019.63;;;25.80;57.72
60258;BME280;46115;44.484;11.314;2023-07-28T22:10:11;100034.88;;;25.96;57.69
60258;BME280;46115;44.484;11.314;2023-07-28T22:14:13;100049.06;;;25.98;57.80
60258;BME280;46115;44.484;11.314;2023-07-28T22:18:17;100043.63;;;25.98;57.69
60258;BME280;46115;44.484;11.314;2023-07-28T22:22:21;100053.84;;;26.11;57.48
60258;BME280;46115;44.484;11.314;2023-07-28T22:26:24;100056.66;;;26.03;57.95
60258;BME280;46115;44.484;11.314;2023-07-28T22:30:27;100062.63;;;26.13;57.74
60258;BME280;46115;44.484;11.314;2023-07-28T22:34:29;100056.53;;;25.96;57.92
60258;BME280;46115;44.484;11.314;2023-07-28T22:38:33;100078.69;;;26.15;57.72
60258;BME280;46115;44.484;11.314;2023-07-28T22:42:36;100047.56;;;25.96;57.70
60258;BME280;46115;44.484;11.314;2023-07-28T22:46:38;100058.88;;;25.99;58.10
60258;BME280;46115;44.484;11.314;2023-07-28T22:50:41;100053.84;;;26.11;58.04
60258;BME280;46115;44.484;11.314;2023-07-28T22:54:45;100051.41;;;26.01;58.16
60258;BME280;46115;44.484;11.314;2023-07-28T22:58:47;100056.44;;;25.90;58.57
60258;BME280;46115;44.484;11.314;2023-07-28T23:02:50;100058.56;;;25.79;59.17
60258;BME280;46115;44.484;11.314;2023-07-28T23:06:52;100058.56;;;25.79;59.02
60258;BME280;46115;44.484;11.314;2023-07-28T23:10:56;100062.28;;;25.56;60.01
60258;BME280;46115;44.484;11.314;2023-07-28T23:14:59;100056.59;;;25.65;59.61
60258;BME280;46115;44.484;11.314;2023-07-28T23:19:01;100058.66;;;25.63;59.76
60258;BME280;46115;44.484;11.314;2023-07-28T23:23:04;100053.22;;;25.71;59.66
60258;BME280;46115;44.484;11.314;2023-07-28T23:27:08;100034.09;;;25.50;59.90
60258;BME280;46115;44.484;11.314;2023-07-28T23:31:12;100057.06;;;25.77;59.51
60258;BME280;46115;44.484;11.314;2023-07-28T23:35:15;100062.84;;;25.74;59.68
60258;BME280;46115;44.484;11.314;2023-07-28T23:39:19;100039.03;;;25.46;59.96
60258;BME280;46115;44.484;11.314;2023-07-28T23:43:23;100045.56;;;25.29;60.96